Time;durP1;ratioP1;P1;durP2;ratioP2;P2;SDS_P1;SDS_P2;PMS_P1;PMS_P2;Temp;Humidity;BMP_temperature;BMP_pressure;BME280_temperature;BME280_humidity;BME280_pressure;Samples;Min_cycle;Max_cycle;Signal;HPM_P1;HPM_P2
2022/08/31 00:06:21;;;;;;;0.80;0.40;;;15.60;99.90;;;;;;5071904;28;20075;-71
2022/08/31 00:08:47;;;;;;;1.50;0.70;;;15.60;99.90;;;;;;5071843;28;20052;-71
2022/08/31 00:11:13;;;;;;;2.22;0.77;;;15.60;99.90;;;;;;5072776;28;20055;-71
2022/08/31 00:13:43;;;;;;;2.33;0.70;;;15.60;99.90;;;;;;5071652;28;20466;-71
2022/08/31 00:16:10;;;;;;;1.05;0.50;;;15.60;99.90;;;;;;5070070;28;20044;-71
2022/08/31 00:18:36;;;;;;;0.85;0.40;;;15.60;99.90;;;;;;5070223;28;20036;-71
2022/08/31 00:21:03;;;;;;;1.33;0.55;;;15.60;99.90;;;;;;5071149;28;20035;-71
2022/08/31 00:23:31;;;;;;;2.08;0.60;;;15.60;99.90;;;;;;5071091;28;20042;-71
2022/08/31 00:25:57;;;;;;;1.15;0.70;;;15.60;99.90;;;;;;5072177;28;20044;-71
2022/08/31 00:28:22;;;;;;;1.20;0.50;;;15.60;99.90;;;;;;5054888;28;20070;-71
2022/08/31 00:30:48;;;;;;;2.10;0.68;;;15.50;99.90;;;;;;5071747;28;20051;-71
2022/08/31 00:33:14;;;;;;;1.20;0.60;;;15.50;99.90;;;;;;5071929;28;20044;-71
2022/08/31 00:35:41;;;;;;;1.17;0.60;;;15.50;99.90;;;;;;5071083;28;20461;-71
2022/08/31 00:38:09;;;;;;;0.95;0.40;;;15.40;99.90;;;;;;5072291;28;20076;-70
2022/08/31 00:40:35;;;;;;;1.05;0.40;;;15.40;99.90;;;;;;5071758;28;20696;-70
2022/08/31 00:43:01;;;;;;;0.98;0.50;;;15.30;99.90;;;;;;5072300;28;20040;-71
2022/08/31 00:45:27;;;;;;;0.70;0.40;;;15.30;99.90;;;;;;5069545;28;20052;-71
2022/08/31 00:47:53;;;;;;;1.75;0.50;;;15.30;99.90;;;;;;5072138;28;20075;-71
2022/08/31 00:50:20;;;;;;;1.25;0.60;;;15.20;99.90;;;;;;5071589;28;20422;-71
2022/08/31 00:52:52;;;;;;;1.38;0.50;;;15.20;99.90;;;;;;5071904;28;20485;-71
2022/08/31 00:55:22;;;;;;;0.90;0.40;;;15.20;99.90;;;;;;5071440;28;20060;-71
2022/08/31 00:57:51;;;;;;;0.93;0.55;;;15.10;99.90;;;;;;5071765;28;20060;-71
2022/08/31 01:00:24;;;;;;;1.40;0.50;;;15.10;99.90;;;;;;5070727;28;20046;-71
2022/08/31 01:02:50;;;;;;;0.75;0.40;;;15.00;99.90;;;;;;5071782;28;20052;-71
2022/08/31 01:05:17;;;;;;;0.82;0.43;;;15.00;99.90;;;;;;5071446;28;20044;-71
2022/08/31 01:07:48;;;;;;;1.35;0.60;;;14.90;99.90;;;;;;5072081;28;20094;-71
2022/08/31 01:10:16;;;;;;;0.95;0.50;;;14.90;99.90;;;;;;5071695;28;20083;-72
2022/08/31 01:12:44;;;;;;;0.88;0.50;;;14.80;99.90;;;;;;5070270;28;20048;-71
2022/08/31 01:15:11;;;;;;;2.03;0.40;;;14.80;99.90;;;;;;5071324;28;20086;-72
2022/08/31 01:17:38;;;;;;;1.00;0.40;;;14.70;99.90;;;;;;5071522;28;20422;-71
2022/08/31 01:20:22;;;;;;;1.20;0.43;;;14.60;99.90;;;;;;5071357;28;20051;-71
2022/08/31 01:23:10;;;;;;;2.67;0.47;;;14.60;99.90;;;;;;5071312;28;20052;-71
2022/08/31 01:25:37;;;;;;;1.00;0.38;;;14.50;99.90;;;;;;5070423;28;20055;-71
2022/08/31 01:28:06;;;;;;;1.00;0.50;;;14.50;99.90;;;;;;5071505;28;20056;-70
2022/08/31 01:30:32;;;;;;;0.70;0.40;;;14.40;99.90;;;;;;5071337;28;20042;-70
2022/08/31 01:32:58;;;;;;;0.80;0.40;;;14.40;99.90;;;;;;5071422;28;20076;-70
2022/08/31 01:35:24;;;;;;;1.73;0.40;;;14.30;99.90;;;;;;5071752;28;20044;-71
2022/08/31 01:37:51;;;;;;;0.82;0.50;;;14.30;99.90;;;;;;5069221;28;20037;-71
2022/08/31 01:40:16;;;;;;;1.65;0.50;;;14.20;99.90;;;;;;5071191;28;20044;-71
2022/08/31 01:42:42;;;;;;;0.68;0.40;;;14.20;99.90;;;;;;5070927;28;20048;-71
2022/08/31 01:45:09;;;;;;;1.35;0.50;;;14.10;99.90;;;;;;5071170;28;20457;-70
2022/08/31 01:47:34;;;;;;;0.63;0.40;;;14.10;99.90;;;;;;5071151;28;20078;-71
2022/08/31 01:50:00;;;;;;;1.60;0.47;;;14.10;99.90;;;;;;5070977;28;20091;-70
2022/08/31 01:52:27;;;;;;;0.70;0.52;;;14.00;99.90;;;;;;5070986;28;20048;-71
2022/08/31 01:54:52;;;;;;;0.73;0.40;;;14.00;99.90;;;;;;5070697;28;20044;-71
2022/08/31 01:57:18;;;;;;;0.57;0.38;;;14.00;99.90;;;;;;5070012;28;20055;-71
2022/08/31 01:59:44;;;;;;;1.50;0.50;;;14.00;99.90;;;;;;5070986;28;20102;-71
2022/08/31 02:02:09;;;;;;;0.90;0.50;;;14.00;99.90;;;;;;5071169;28;20048;-71
2022/08/31 02:04:35;;;;;;;1.38;0.50;;;14.00;99.90;;;;;;5071114;28;20068;-72
2022/08/31 02:07:01;;;;;;;1.38;0.50;;;14.10;99.90;;;;;;5069841;28;20080;-71
2022/08/31 02:09:28;;;;;;;1.30;0.50;;;14.10;99.90;;;;;;5068919;28;20515;-71
2022/08/31 02:11:53;;;;;;;0.85;0.40;;;14.00;99.90;;;;;;5070472;28;20558;-71
2022/08/31 02:14:20;;;;;;;1.40;0.60;;;14.00;99.90;;;;;;5069781;28;20045;-71
2022/08/31 02:16:46;;;;;;;1.00;0.60;;;14.00;99.90;;;;;;5070449;28;20384;-72
2022/08/31 02:19:12;;;;;;;1.40;0.50;;;14.00;99.90;;;;;;5070771;28;20040;-71
2022/08/31 02:21:38;;;;;;;0.63;0.40;;;13.90;99.90;;;;;;5071314;28;20323;-71
2022/08/31 02:24:05;;;;;;;2.55;0.60;;;13.90;99.90;;;;;;5068520;28;20380;-71
2022/08/31 02:26:31;;;;;;;2.08;0.50;;;13.80;99.90;;;;;;5069894;28;20123;-71
2022/08/31 02:28:56;;;;;;;0.75;0.50;;;13.80;99.90;;;;;;5070770;28;20041;-71
2022/08/31 02:31:22;;;;;;;2.25;0.70;;;13.70;99.90;;;;;;5070871;28;20102;-71
2022/08/31 02:33:48;;;;;;;1.23;0.50;;;13.70;99.90;;;;;;5070986;28;20044;-71
2022/08/31 02:36:13;;;;;;;1.25;0.40;;;13.60;99.90;;;;;;5070822;28;20044;-71
2022/08/31 02:38:39;;;;;;;0.70;0.40;;;13.60;99.90;;;;;;5069673;28;20369;-71
2022/08/31 02:41:06;;;;;;;0.88;0.40;;;13.60;99.90;;;;;;5070272;28;20044;-71
2022/08/31 02:43:32;;;;;;;0.70;0.40;;;13.50;99.90;;;;;;5070739;28;20040;-71
2022/08/31 02:45:58;;;;;;;0.73;0.50;;;13.50;99.90;;;;;;5070644;28;20043;-71
2022/08/31 02:48:23;;;;;;;2.25;0.40;;;13.40;99.90;;;;;;5069576;28;20052;-71
2022/08/31 02:50:51;;;;;;;0.65;0.40;;;13.40;99.90;;;;;;5070708;28;20533;-71
2022/08/31 02:53:20;;;;;;;0.90;0.50;;;13.40;99.90;;;;;;5070134;28;20485;-71
2022/08/31 02:55:46;;;;;;;0.70;0.50;;;13.40;99.90;;;;;;5073256;28;20370;-72
2022/08/31 02:58:13;;;;;;;0.82;0.40;;;13.30;99.90;;;;;;5074232;28;20051;-71
2022/08/31 03:00:43;;;;;;;0.77;0.50;;;13.30;99.90;;;;;;5072694;28;20127;-71
2022/08/31 03:03:09;;;;;;;2.00;0.50;;;13.30;99.90;;;;;;5073005;28;20068;-71
2022/08/31 03:05:35;;;;;;;1.15;0.50;;;13.30;99.90;;;;;;5073766;28;20040;-71
2022/08/31 03:08:01;;;;;;;0.90;0.40;;;13.20;99.90;;;;;;5072165;28;20381;-71
2022/08/31 03:10:27;;;;;;;0.80;0.50;;;13.10;99.90;;;;;;5073652;28;20469;-71
2022/08/31 03:12:53;;;;;;;1.45;0.63;;;13.10;99.90;;;;;;5073495;28;20505;-71
2022/08/31 03:15:20;;;;;;;1.65;0.50;;;13.10;99.90;;;;;;5073886;28;20044;-70
2022/08/31 03:17:46;;;;;;;1.08;0.50;;;13.00;99.90;;;;;;5072387;28;20037;-71
2022/08/31 03:20:14;;;;;;;0.90;0.50;;;13.00;99.90;;;;;;5072814;28;20044;-71
2022/08/31 03:22:42;;;;;;;0.77;0.50;;;12.90;99.90;;;;;;5072655;28;20135;-71
2022/08/31 03:25:08;;;;;;;1.85;0.60;;;12.90;99.90;;;;;;5073647;28;20044;-71
2022/08/31 03:27:36;;;;;;;0.77;0.50;;;12.90;99.90;;;;;;5074029;28;20045;-71
2022/08/31 03:30:07;;;;;;;1.48;0.60;;;12.90;99.90;;;;;;5072711;28;20136;-71
2022/08/31 03:32:33;;;;;;;2.28;0.70;;;12.80;99.90;;;;;;5073037;28;20441;-71
2022/08/31 03:35:00;;;;;;;0.88;0.55;;;12.80;99.90;;;;;;5072711;28;20358;-71
2022/08/31 03:37:26;;;;;;;1.50;0.60;;;12.70;99.90;;;;;;5069752;28;20415;-71
2022/08/31 03:39:52;;;;;;;1.10;0.60;;;12.70;99.90;;;;;;5071426;28;20454;-71
2022/08/31 03:42:18;;;;;;;0.88;0.50;;;12.60;99.90;;;;;;5072419;28;20087;-71
2022/08/31 03:44:45;;;;;;;1.02;0.57;;;12.60;99.90;;;;;;5073205;28;20040;-71
2022/08/31 03:47:11;;;;;;;1.27;0.60;;;12.50;99.90;;;;;;5073261;28;20041;-71
2022/08/31 03:49:37;;;;;;;1.20;0.63;;;12.50;99.90;;;;;;5072271;28;20123;-71
2022/08/31 03:52:03;;;;;;;1.17;0.60;;;12.50;99.90;;;;;;5072151;28;20036;-71
2022/08/31 03:54:29;;;;;;;0.95;0.63;;;12.50;99.90;;;;;;5071727;28;20052;-71
2022/08/31 03:56:55;;;;;;;1.13;0.60;;;12.50;99.90;;;;;;5072880;28;20053;-71
2022/08/31 03:59:21;;;;;;;1.08;0.60;;;12.50;99.90;;;;;;5072952;28;20368;-71
2022/08/31 04:01:46;;;;;;;1.08;0.60;;;12.50;99.90;;;;;;5071665;28;20048;-72
2022/08/31 04:04:12;;;;;;;1.70;0.70;;;12.40;99.90;;;;;;5072919;28;20044;-71
2022/08/31 04:06:45;;;;;;;1.20;0.70;;;12.40;99.90;;;;;;5071633;28;20489;-71
2022/08/31 04:09:12;;;;;;;1.10;0.60;;;12.40;99.90;;;;;;5055095;28;20057;-70
2022/08/31 04:11:42;;;;;;;1.40;0.70;;;12.30;99.90;;;;;;5072477;28;20040;-71
2022/08/31 04:14:08;;;;;;;1.00;0.60;;;12.30;99.90;;;;;;5072860;28;20044;-71
2022/08/31 04:16:35;;;;;;;1.92;0.75;;;12.20;99.90;;;;;;5071237;28;20546;-71
2022/08/31 04:19:00;;;;;;;1.40;0.70;;;12.30;99.90;;;;;;5071582;28;20322;-71
2022/08/31 04:21:31;;;;;;;1.75;0.80;;;12.20;99.90;;;;;;5072714;28;20056;-71
2022/08/31 04:23:58;;;;;;;1.60;0.75;;;12.20;99.90;;;;;;5072677;28;20057;-72
2022/08/31 04:26:35;;;;;;;1.17;0.65;;;12.20;99.90;;;;;;5070215;28;20048;-72
2022/08/31 04:29:02;;;;;;;2.10;0.70;;;12.10;99.90;;;;;;5071368;28;20060;-72
2022/08/31 04:31:28;;;;;;;1.60;0.60;;;12.10;99.90;;;;;;5072378;28;20055;-72
2022/08/31 04:33:55;;;;;;;2.47;0.90;;;12.10;99.90;;;;;;5071855;28;20174;-72
2022/08/31 04:36:23;;;;;;;1.38;0.70;;;12.10;99.90;;;;;;5071361;28;20437;-71
2022/08/31 04:38:53;;;;;;;2.03;0.70;;;12.00;99.90;;;;;;5070867;28;20048;-72
2022/08/31 04:41:21;;;;;;;2.05;0.75;;;12.00;99.90;;;;;;5071193;28;20389;-72
2022/08/31 04:43:49;;;;;;;1.08;0.60;;;12.00;99.90;;;;;;5071938;28;20075;-71
2022/08/31 04:46:15;;;;;;;1.45;0.80;;;11.90;99.90;;;;;;5071831;28;20047;-72
2022/08/31 04:48:41;;;;;;;1.05;0.60;;;12.00;99.90;;;;;;5070581;28;20142;-72
2022/08/31 04:51:23;;;;;;;1.42;0.80;;;11.90;99.90;;;;;;5071696;28;20045;-72
2022/08/31 04:53:50;;;;;;;1.38;0.95;;;11.90;99.90;;;;;;5071504;28;20059;-72
2022/08/31 04:56:38;;;;;;;1.67;0.93;;;11.90;99.90;;;;;;5071334;28;20078;-72
2022/08/31 04:59:07;;;;;;;2.03;0.80;;;11.80;99.90;;;;;;5070402;28;20053;-72
2022/08/31 05:01:39;;;;;;;2.58;0.85;;;11.80;99.90;;;;;;5070445;28;20131;-72
2022/08/31 05:04:06;;;;;;;1.20;0.70;;;11.80;99.90;;;;;;5072021;28;20131;-71
2022/08/31 05:06:34;;;;;;;1.85;0.77;;;11.90;99.90;;;;;;5070696;28;20084;-71
2022/08/31 05:09:06;;;;;;;1.23;0.70;;;11.70;99.90;;;;;;5070533;28;20074;-71
2022/08/31 05:11:32;;;;;;;1.48;0.73;;;11.70;99.90;;;;;;5069417;28;20051;-71
2022/08/31 05:14:00;;;;;;;1.10;0.63;;;11.70;99.90;;;;;;5071159;28;20488;-71
2022/08/31 05:16:29;;;;;;;1.67;0.70;;;11.70;99.90;;;;;;5070189;28;20055;-71
2022/08/31 05:18:56;;;;;;;1.23;0.63;;;11.70;99.90;;;;;;5071218;28;20048;-71
2022/08/31 05:21:30;;;;;;;1.42;0.70;;;11.70;99.90;;;;;;5071518;28;20054;-71
2022/08/31 05:24:01;;;;;;;1.77;0.80;;;11.80;99.90;;;;;;5071555;28;20090;-72
2022/08/31 05:26:30;;;;;;;1.50;0.77;;;11.80;99.90;;;;;;5067694;28;20068;-72
2022/08/31 05:28:58;;;;;;;2.03;0.80;;;11.90;99.90;;;;;;5071083;28;20461;-71
2022/08/31 05:31:26;;;;;;;1.60;0.90;;;11.90;99.90;;;;;;5071371;28;20040;-71
2022/08/31 05:33:52;;;;;;;1.85;0.75;;;12.00;99.90;;;;;;5071657;28;20051;-71
2022/08/31 05:36:18;;;;;;;1.60;0.80;;;11.90;99.90;;;;;;5071341;28;20044;-71
2022/08/31 05:38:43;;;;;;;1.35;0.80;;;12.00;99.90;;;;;;5071491;28;20128;-71
2022/08/31 05:41:10;;;;;;;1.35;0.75;;;12.00;99.90;;;;;;5069969;28;20412;-72
2022/08/31 05:43:37;;;;;;;1.92;0.88;;;12.10;99.90;;;;;;5068271;28;20079;-72
2022/08/31 05:46:13;;;;;;;1.45;0.80;;;12.10;99.90;;;;;;5070063;28;20427;-71
2022/08/31 05:48:39;;;;;;;1.45;0.60;;;12.20;99.90;;;;;;5069871;28;20507;-72
2022/08/31 05:51:12;;;;;;;2.10;0.85;;;12.30;99.90;;;;;;5070041;28;20052;-72
2022/08/31 05:53:38;;;;;;;1.50;0.70;;;12.40;99.90;;;;;;5070850;28;20044;-72
2022/08/31 05:56:13;;;;;;;1.55;0.95;;;12.40;99.90;;;;;;5071275;28;20088;-72
2022/08/31 05:58:41;;;;;;;1.83;0.85;;;12.50;99.90;;;;;;5070650;28;20070;-73
2022/08/31 06:01:14;;;;;;;2.47;0.95;;;12.70;99.90;;;;;;5068791;28;20136;-72
2022/08/31 06:03:41;;;;;;;1.50;0.80;;;12.80;99.90;;;;;;5070898;28;20033;-72
2022/08/31 06:06:08;;;;;;;2.28;0.90;;;12.90;99.90;;;;;;5069862;28;20086;-72
2022/08/31 06:08:35;;;;;;;1.50;0.90;;;13.00;99.90;;;;;;5070970;28;20044;-72
2022/08/31 06:11:02;;;;;;;2.15;0.90;;;13.10;99.90;;;;;;5069441;28;20059;-65
2022/08/31 06:13:28;;;;;;;1.90;0.90;;;13.20;99.90;;;;;;5071067;28;20048;-65
2022/08/31 06:15:56;;;;;;;4.07;1.00;;;13.20;99.90;;;;;;5070891;28;20049;-64
2022/08/31 06:18:22;;;;;;;2.40;0.90;;;13.30;99.90;;;;;;5070837;28;20052;-64
2022/08/31 06:20:48;;;;;;;2.40;0.98;;;13.30;99.90;;;;;;5070918;28;20036;-65
2022/08/31 06:23:15;;;;;;;3.70;0.80;;;13.40;99.90;;;;;;5071107;28;20048;-64
2022/08/31 06:25:41;;;;;;;1.42;0.80;;;13.40;99.90;;;;;;5069607;28;20045;-64
2022/08/31 06:28:08;;;;;;;1.60;0.88;;;13.50;99.90;;;;;;5070785;28;20059;-64
2022/08/31 06:30:38;;;;;;;1.38;0.80;;;13.70;99.90;;;;;;5072443;28;20048;-64
2022/08/31 06:33:05;;;;;;;1.65;0.70;;;13.80;99.90;;;;;;5073491;28;20067;-64
2022/08/31 06:35:32;;;;;;;2.05;0.80;;;13.90;99.90;;;;;;5073416;28;20049;-64
2022/08/31 06:37:58;;;;;;;1.65;0.80;;;14.00;99.90;;;;;;5074277;28;20695;-64
2022/08/31 06:40:27;;;;;;;1.55;0.80;;;14.00;99.90;;;;;;5074596;28;20161;-64
2022/08/31 06:42:53;;;;;;;1.70;0.80;;;14.10;99.90;;;;;;5074059;28;20040;-64
2022/08/31 06:45:19;;;;;;;1.58;0.70;;;14.20;99.90;;;;;;5074487;28;20373;-65
2022/08/31 06:47:45;;;;;;;1.85;0.85;;;14.30;99.90;;;;;;5072739;28;20044;-64
2022/08/31 06:50:12;;;;;;;1.60;0.80;;;14.50;99.90;;;;;;5074387;28;20047;-65
2022/08/31 06:52:38;;;;;;;1.38;0.73;;;14.60;99.90;;;;;;5074351;28;20511;-65
2022/08/31 06:55:04;;;;;;;2.60;0.90;;;14.70;99.90;;;;;;5074190;28;20092;-65
2022/08/31 06:57:29;;;;;;;1.85;0.80;;;14.80;99.90;;;;;;5073750;28;20044;-65
2022/08/31 06:59:55;;;;;;;1.20;0.70;;;14.90;99.90;;;;;;5074425;28;20055;-65
2022/08/31 07:02:21;;;;;;;1.88;0.70;;;15.00;99.90;;;;;;5073974;28;20040;-65
2022/08/31 07:04:46;;;;;;;2.50;0.98;;;15.10;99.90;;;;;;5073651;28;20765;-64
2022/08/31 07:07:12;;;;;;;1.27;0.70;;;15.20;99.90;;;;;;5073877;28;20044;-64
2022/08/31 07:09:39;;;;;;;1.75;0.85;;;15.30;99.90;;;;;;5074014;28;20522;-65
2022/08/31 07:12:06;;;;;;;2.25;0.90;;;15.40;99.90;;;;;;5073319;28;20048;-65
2022/08/31 07:14:32;;;;;;;1.63;0.90;;;15.50;99.90;;;;;;5069554;28;20141;-64
2022/08/31 07:17:01;;;;;;;1.80;0.80;;;15.50;99.90;;;;;;5063497;28;20040;-65
2022/08/31 07:19:28;;;;;;;1.48;0.70;;;15.60;99.90;;;;;;5069188;28;20123;-65
2022/08/31 07:21:56;;;;;;;3.28;0.98;;;15.60;99.90;;;;;;5073142;28;20064;-65
2022/08/31 07:24:26;;;;;;;1.77;0.70;;;15.80;99.90;;;;;;5073226;28;20439;-65
2022/08/31 07:27:03;;;;;;;2.25;0.80;;;15.90;99.90;;;;;;5073297;28;20094;-65
2022/08/31 07:29:36;;;;;;;2.17;0.80;;;16.10;99.90;;;;;;5052011;28;20055;-64
2022/08/31 07:32:02;;;;;;;1.58;0.70;;;16.20;99.90;;;;;;5053368;28;20052;-65
2022/08/31 07:34:29;;;;;;;1.15;0.68;;;16.40;99.90;;;;;;5072960;28;20044;-65
2022/08/31 07:42:29;;;;;;;1.30;0.70;;;16.70;99.90;;;;;;5072536;28;20049;-65
2022/08/31 07:44:57;;;;;;;2.30;0.80;;;16.80;99.90;;;;;;5072793;28;20118;-66
2022/08/31 07:47:27;;;;;;;1.42;0.70;;;16.90;99.90;;;;;;5072635;28;20048;-65
2022/08/31 07:49:57;;;;;;;1.80;0.70;;;17.10;99.90;;;;;;5072970;28;20169;-66
2022/08/31 07:52:29;;;;;;;0.98;0.55;;;17.20;99.90;;;;;;5071639;28;20048;-65
2022/08/31 07:55:06;;;;;;;1.85;0.60;;;17.40;99.90;;;;;;5072842;28;20056;-66
2022/08/31 07:57:42;;;;;;;2.78;0.60;;;17.50;99.90;;;;;;5071607;28;20059;-65
2022/08/31 08:00:19;;;;;;;;;;;17.60;99.90;;;;;;5072565;28;20370;-66
2022/08/31 08:02:45;;;;;;;1.67;0.60;;;17.70;99.90;;;;;;5072617;28;19924;-65
2022/08/31 08:05:19;;;;;;;1.73;0.57;;;17.80;99.90;;;;;;5072519;28;20090;-66
2022/08/31 08:07:47;;;;;;;0.82;0.47;;;17.90;99.90;;;;;;5072084;28;20409;-64
2022/08/31 08:10:13;;;;;;;1.10;0.60;;;18.10;99.90;;;;;;5072388;28;20076;-66
2022/08/31 08:12:41;;;;;;;1.27;0.60;;;18.10;99.90;;;;;;5072170;28;20047;-64
2022/08/31 08:15:07;;;;;;;1.85;0.50;;;18.20;99.90;;;;;;5072109;28;20099;-65
2022/08/31 08:17:33;;;;;;;3.15;0.70;;;18.20;99.90;;;;;;5072054;28;20040;-65
2022/08/31 08:19:59;;;;;;;1.80;0.57;;;18.10;99.90;;;;;;5072227;28;20044;-65
2022/08/31 08:22:25;;;;;;;1.20;0.60;;;18.10;99.90;;;;;;5072169;28;20070;-65
2022/08/31 08:24:50;;;;;;;1.27;0.60;;;18.20;99.90;;;;;;5071471;28;20044;-65
2022/08/31 08:27:17;;;;;;;1.70;0.70;;;18.20;99.90;;;;;;5090181;28;20469;-65
2022/08/31 08:29:43;;;;;;;2.28;0.70;;;18.20;99.90;;;;;;5090805;28;20051;-65
2022/08/31 08:32:09;;;;;;;2.70;0.70;;;18.30;99.90;;;;;;5092221;28;20089;-65
2022/08/31 08:34:42;;;;;;;1.73;0.60;;;18.40;99.90;;;;;;5092539;28;20414;-65
2022/08/31 08:37:11;;;;;;;1.17;0.50;;;18.50;99.90;;;;;;5091660;28;20040;-65
2022/08/31 08:39:37;;;;;;;1.25;0.50;;;18.50;99.90;;;;;;5092322;28;20130;-67
2022/08/31 08:42:07;;;;;;;2.28;0.63;;;18.60;99.90;;;;;;5091478;28;20044;-64
2022/08/31 08:44:35;;;;;;;1.95;0.60;;;18.70;99.90;;;;;;5091110;28;20048;-64
2022/08/31 08:47:06;;;;;;;2.85;0.50;;;18.80;99.90;;;;;;5089478;28;20127;-63
2022/08/31 08:49:55;;;;;;;1.77;0.50;;;18.90;99.90;;;;;;5091295;28;20543;-63
2022/08/31 08:52:34;;;;;;;2.45;0.50;;;19.00;99.90;;;;;;5090558;28;20127;-65
2022/08/31 08:55:04;;;;;;;0.98;0.50;;;19.00;99.90;;;;;;5091290;28;20561;-64
2022/08/31 08:57:33;;;;;;;2.10;0.80;;;19.20;99.90;;;;;;5091290;28;20118;-64
2022/08/31 09:00:07;;;;;;;1.52;0.70;;;19.30;99.90;;;;;;5091739;28;20102;-63
2022/08/31 09:02:40;;;;;;;1.75;0.50;;;19.40;99.90;;;;;;5091779;28;20118;-65
2022/08/31 09:05:23;;;;;;;1.73;0.60;;;19.50;99.90;;;;;;5091431;28;20242;-65
2022/08/31 09:08:09;;;;;;;1.17;0.50;;;19.70;99.90;;;;;;5083959;28;20047;-64
2022/08/31 09:11:01;;;;;;;1.52;0.50;;;19.80;99.90;;;;;;5071514;28;20119;-65
2022/08/31 09:13:57;;;;;;;2.95;0.80;;;19.80;99.90;;;;;;5051853;28;20052;-65
2022/08/31 09:16:39;;;;;;;1.40;0.50;;;20.00;99.90;;;;;;5050011;28;20049;-64
2022/08/31 09:19:17;;;;;;;1.15;0.60;;;20.10;99.90;;;;;;5070502;28;20048;-64
2022/08/31 09:21:54;;;;;;;3.05;0.65;;;20.20;99.90;;;;;;5067941;28;20036;-64
2022/08/31 09:24:27;;;;;;;1.45;0.40;;;20.30;99.90;;;;;;5049509;28;20048;-64
2022/08/31 09:27:16;;;;;;;2.58;0.70;;;20.40;99.90;;;;;;5068559;28;20377;-66
2022/08/31 09:30:04;;;;;;;1.73;0.50;;;20.40;99.90;;;;;;5069868;28;20131;-65
2022/08/31 09:32:34;;;;;;;2.45;0.70;;;20.40;99.90;;;;;;5069505;28;20044;-64
2022/08/31 09:35:20;;;;;;;1.60;0.60;;;20.50;99.90;;;;;;5069623;28;20167;-64
2022/08/31 09:38:01;;;;;;;1.48;0.50;;;20.40;99.90;;;;;;5070534;28;20036;-64
2022/08/31 09:40:40;;;;;;;0.80;0.40;;;20.50;99.90;;;;;;5071079;28;20131;-63
2022/08/31 09:43:10;;;;;;;1.20;0.45;;;20.50;99.90;;;;;;5070134;28;20044;-64
2022/08/31 09:45:58;;;;;;;2.20;0.70;;;20.50;99.90;;;;;;5070080;28;20139;-64
2022/08/31 09:48:38;;;;;;;1.33;0.52;;;20.60;99.90;;;;;;5066048;28;20527;-63
2022/08/31 09:51:05;;;;;;;1.52;0.60;;;20.70;99.90;;;;;;5070581;28;20084;-64
2022/08/31 09:56:26;;;;;;;2.47;0.52;;;20.90;99.90;;;;;;5069644;28;20419;-64
2022/08/31 09:59:01;;;;;;;1.20;0.60;;;21.00;99.90;;;;;;5089378;28;20146;-66
2022/08/31 10:01:43;;;;;;;3.00;0.50;;;21.10;99.90;;;;;;5090775;28;20044;-64
2022/08/31 10:04:13;;;;;;;1.00;0.40;;;21.00;99.90;;;;;;5090969;28;20286;-65
2022/08/31 10:06:51;;;;;;;0.75;0.38;;;21.00;99.90;;;;;;5094362;28;20384;-64
2022/08/31 10:09:36;;;;;;;0.77;0.47;;;21.10;99.90;;;;;;5074806;28;20500;-64
2022/08/31 10:12:08;;;;;;;2.47;0.73;;;21.10;99.90;;;;;;5072408;28;20048;-64
2022/08/31 10:14:49;;;;;;;1.20;0.50;;;21.20;99.90;;;;;;5074391;28;20045;-64
2022/08/31 10:17:25;;;;;;;1.63;0.70;;;21.30;99.90;;;;;;5073746;28;20051;-64
2022/08/31 10:20:19;;;;;;;1.08;0.40;;;21.30;99.90;;;;;;5066341;28;20101;-65
2022/08/31 10:23:03;;;;;;;1.48;0.50;;;21.30;99.90;;;;;;5037441;28;20113;-65
2022/08/31 10:25:40;;;;;;;0.93;0.45;;;21.30;99.90;;;;;;5061159;28;20051;-66
2022/08/31 10:28:27;;;;;;;1.13;0.40;;;21.30;99.90;;;;;;5074079;28;20040;-66
2022/08/31 10:31:19;;;;;;;1.08;0.50;;;21.40;99.90;;;;;;5074255;28;20385;-65
2022/08/31 10:36:48;;;;;;;0.90;0.50;;;21.40;99.90;;;;;;5074038;28;20074;-65
2022/08/31 10:39:40;;;;;;;2.15;0.40;;;21.40;99.90;;;;;;5074272;28;20056;-64
2022/08/31 10:42:15;;;;;;;1.10;0.40;;;21.40;99.90;;;;;;5073047;28;20486;-66
2022/08/31 10:44:55;;;;;;;1.75;0.40;;;21.50;99.90;;;;;;5067695;28;20082;-66
2022/08/31 10:47:27;;;;;;;1.90;0.40;;;21.60;99.90;;;;;;5073149;28;20033;-66
2022/08/31 10:49:58;;;;;;;1.88;0.50;;;21.60;99.90;;;;;;5071040;28;20059;-67
2022/08/31 10:53:04;;;;;;;1.00;0.40;;;21.50;99.90;;;;;;5073845;28;20083;-65
2022/08/31 10:56:13;;;;;;;1.70;0.45;;;21.60;99.90;;;;;;5052809;28;20105;-65
2022/08/31 10:59:01;;;;;;;0.90;0.50;;;21.50;99.90;;;;;;5073764;28;20117;-65
2022/08/31 11:02:00;;;;;;;1.30;0.50;;;21.50;99.90;;;;;;5073616;28;20047;-65
2022/08/31 11:04:44;;;;;;;1.40;0.50;;;21.50;99.90;;;;;;5073612;28;20382;-65
2022/08/31 11:07:54;;;;;;;1.17;0.43;;;21.60;99.90;;;;;;5073634;28;20044;-65
2022/08/31 11:10:27;;;;;;;1.00;0.40;;;21.50;99.90;;;;;;5073662;28;20060;-65
2022/08/31 11:12:59;;;;;;;1.60;0.47;;;21.60;99.90;;;;;;5072524;28;20079;-65
2022/08/31 11:15:48;;;;;;;1.58;0.50;;;21.60;99.90;;;;;;5071722;28;20408;-66
2022/08/31 11:18:49;;;;;;;4.28;0.50;;;21.70;99.90;;;;;;5072929;28;20080;-66
2022/08/31 11:21:41;;;;;;;1.50;0.50;;;21.60;99.90;;;;;;5071861;28;20059;-66
2022/08/31 11:24:19;;;;;;;1.60;0.50;;;21.60;99.90;;;;;;5073400;28;20166;-66
2022/08/31 11:26:57;;;;;;;0.98;0.47;;;21.60;99.90;;;;;;5073267;28;20075;-66
2022/08/31 11:29:45;;;;;;;1.15;0.50;;;21.60;99.90;;;;;;5072366;28;20392;-66
2022/08/31 11:32:23;;;;;;;1.35;0.50;;;21.60;99.90;;;;;;5072993;28;20036;-66
2022/08/31 11:34:55;;;;;;;0.90;0.40;;;21.70;99.90;;;;;;5073057;28;20120;-66
2022/08/31 11:37:49;;;;;;;1.33;0.75;;;21.70;99.90;;;;;;5073283;28;20116;-66
2022/08/31 11:40:41;;;;;;;1.30;0.50;;;21.80;99.90;;;;;;5073330;28;20131;-66
2022/08/31 11:43:34;;;;;;;1.45;0.60;;;22.00;99.90;;;;;;5072054;28;20055;-66
2022/08/31 11:46:24;;;;;;;2.15;0.50;;;22.00;99.90;;;;;;5071694;28;20087;-66
2022/08/31 11:48:55;;;;;;;0.80;0.40;;;21.90;99.90;;;;;;5072213;28;20608;-66
2022/08/31 11:51:31;;;;;;;1.77;0.60;;;22.00;99.90;;;;;;5072705;28;20097;-65
2022/08/31 11:53:59;;;;;;;1.50;0.68;;;22.00;99.90;;;;;;5072541;28;20063;-64
2022/08/31 11:56:35;;;;;;;1.92;0.40;;;22.10;99.90;;;;;;5072106;28;20059;-64
2022/08/31 11:59:26;;;;;;;1.02;0.50;;;22.10;99.90;;;;;;5072628;28;20056;-65
2022/08/31 12:01:55;;;;;;;1.35;0.60;;;22.20;99.90;;;;;;5071794;28;20050;-65
2022/08/31 12:04:40;;;;;;;1.15;0.55;;;22.20;99.90;;;;;;5071902;28;20386;-65
2022/08/31 12:07:27;;;;;;;1.02;0.50;;;22.20;99.90;;;;;;5071940;28;20174;-65
2022/08/31 12:10:13;;;;;;;2.13;0.50;;;22.20;99.90;;;;;;5071358;28;20036;-64
2022/08/31 12:13:09;;;;;;;1.95;0.70;;;22.10;99.90;;;;;;5070799;28;20079;-64
2022/08/31 12:16:06;;;;;;;1.48;0.45;;;22.10;99.90;;;;;;5072564;28;20044;-65
2022/08/31 12:18:38;;;;;;;1.13;0.40;;;22.10;99.90;;;;;;5067078;28;20051;-63
2022/08/31 12:24:26;;;;;;;1.20;0.50;;;22.10;99.90;;;;;;5072000;28;20048;-64
2022/08/31 12:26:55;;;;;;;0.77;0.40;;;22.10;99.90;;;;;;5070783;28;20449;-64
2022/08/31 12:29:31;;;;;;;2.22;0.57;;;22.20;99.90;;;;;;5071075;28;20080;-63
2022/08/31 12:32:28;;;;;;;2.08;0.60;;;22.20;99.90;;;;;;5071948;28;20423;-64
2022/08/31 12:34:53;;;;;;;;;;;22.20;99.90;;;;;;5071376;28;20131;-63
2022/08/31 12:37:25;;;;;;;1.23;0.40;;;22.20;99.90;;;;;;5071381;28;20011;-64
2022/08/31 12:40:07;;;;;;;1.00;0.38;;;22.20;99.90;;;;;;5072095;28;20060;-64
2022/08/31 12:42:37;;;;;;;1.48;0.38;;;22.20;99.90;;;;;;5071570;28;20067;-64
2022/08/31 12:45:04;;;;;;;2.20;0.50;;;22.20;99.90;;;;;;5071738;28;20048;-65
2022/08/31 12:47:51;;;;;;;0.98;0.50;;;22.20;99.90;;;;;;5070151;28;20112;-64
2022/08/31 12:50:49;;;;;;;1.23;0.40;;;22.30;99.90;;;;;;5069045;28;20106;-64
2022/08/31 12:53:56;;;;;;;1.63;0.50;;;22.40;99.90;;;;;;5066672;28;20054;-64
2022/08/31 12:56:51;;;;;;;1.35;0.40;;;22.30;99.90;;;;;;5071256;28;20053;-63
2022/08/31 12:59:42;;;;;;;1.45;0.40;;;22.30;99.90;;;;;;5071283;28;20045;-64
2022/08/31 13:02:11;;;;;;;0.77;0.43;;;22.40;99.90;;;;;;5070194;28;20091;-63
2022/08/31 13:04:42;;;;;;;1.27;0.47;;;22.50;99.90;;;;;;5070872;28;20127;-65
2022/08/31 13:07:27;;;;;;;1.30;0.40;;;22.60;99.90;;;;;;5069957;28;20480;-64
2022/08/31 13:10:12;;;;;;;1.25;0.40;;;22.60;99.90;;;;;;5070584;28;20047;-64
2022/08/31 13:12:38;;;;;;;0.43;0.30;;;22.50;99.90;;;;;;5069711;28;20040;-64
2022/08/31 13:15:09;;;;;;;1.25;0.60;;;22.50;99.90;;;;;;5071423;28;20075;-64
2022/08/31 13:17:38;;;;;;;0.52;0.30;;;22.40;99.90;;;;;;5071315;28;20563;-65
2022/08/31 13:20:05;;;;;;;1.35;0.50;;;22.40;99.90;;;;;;5069873;28;20102;-64
2022/08/31 13:22:40;;;;;;;0.80;0.40;;;22.50;99.90;;;;;;5070890;28;20052;-64
2022/08/31 13:25:34;;;;;;;1.55;0.40;;;22.50;99.90;;;;;;5070912;28;20108;-65
2022/08/31 13:28:20;;;;;;;1.85;0.40;;;22.60;99.90;;;;;;5071196;28;20040;-65
2022/08/31 13:30:55;;;;;;;1.80;0.40;;;22.60;99.90;;;;;;5070789;28;20493;-64
2022/08/31 13:33:30;;;;;;;2.35;0.40;;;22.60;99.90;;;;;;5070623;28;20477;-63